New Mighty — 3FMN — position and weather

sailwx.info

Track history (hours):
 
Tides and Currents Weather Stations Pressure Air Temp Water Temp Dewpoint Dewpoint Depression Visibility Wind Speed Wind Dir Waves Ship Positions

New Mighty

Last reported at 2018-Apr-19 02:18 UTC. Time now 2018-Apr-22 10:54 UTC.
Position N 01°15' E 104°05'.

Length 292 m; draft 16.8 m.

Type: Cargo ship. MMSI: 354199000.

Date/timePositionNaut miles runAvg speedWind from/ knotsBaromVisibWave heightAir tempDewpointWater temp
2018-Apr-19 02:18N 01°15' E 104°05'3 9.7
2018-Apr-19 01:58N 01°15' E 104°02'4 8.9
2018-Apr-19 01:31N 01°14' E 103°58'2 4.4
2018-Apr-19 00:59N 01°16' E 103°56'0 0.1
2018-Apr-19 00:29N 01°16' E 103°56'0 0.0
2018-Apr-18 23:59N 01°16' E 103°56'0 0.1
2018-Apr-18 23:29N 01°16' E 103°57'0 0.0
2018-Apr-18 22:20N 01°16' E 103°57'0 0.0
2018-Apr-18 21:56N 01°16' E 103°57'0 0.0
2018-Apr-18 21:17N 01°16' E 103°57'0 0.0
2018-Apr-18 20:56N 01°16' E 103°57'0 0.0
2018-Apr-18 20:26N 01°16' E 103°57'0 0.0
2018-Apr-18 19:53N 01°16' E 103°57'0 0.0
2018-Apr-18 19:26N 01°16' E 103°57'0 0.1
2018-Apr-18 18:47N 01°16' E 103°57'0 0.5
2018-Apr-18 18:29N 01°16' E 103°56'0 0.4
2018-Apr-18 17:59N 01°16' E 103°56'0 0.2
2018-Apr-18 17:29N 01°16' E 103°56'0 0.0
2018-Apr-18 16:02N 01°16' E 103°56'0 0.0
2018-Apr-18 15:59N 01°16' E 103°56'0 0.0
2018-Apr-18 15:26N 01°16' E 103°56'0 0.0
2018-Apr-18 14:59N 01°16' E 103°56'0 0.0
2018-Apr-18 14:29N 01°16' E 103°56'0 0.0
2018-Apr-18 13:59N 01°16' E 103°56'0 0.0
2018-Apr-18 13:23N 01°16' E 103°56'0 0.0
2018-Apr-18 12:53N 01°16' E 103°56'0 0.0
2018-Apr-18 12:29N 01°16' E 103°56'0 0.0
2018-Apr-18 11:59N 01°16' E 103°56'0 0.0
2018-Apr-18 11:29N 01°16' E 103°56'0 0.1
2018-Apr-18 11:00N 01°16' E 103°56'0 0.1
2018-Apr-18 10:30N 01°16' E 103°56'0 0.0
2018-Apr-18 09:59N 01°16' E 103°56'0 0.2
2018-Apr-18 09:30N 01°16' E 103°56'0 0.2
2018-Apr-18 09:00N 01°16' E 103°56'1 2.1
2018-Apr-18 08:30N 01°15' E 103°57'1 2.5
2018-Apr-18 08:00N 01°14' E 103°57'3 6.3
2018-Apr-18 07:30N 01°13' E 103°54'4 7.9
2018-Apr-18 07:00N 01°11' E 103°50'3 6.2
2018-Apr-18 06:30N 01°10' E 103°47'4 8.8
2018-Apr-18 06:00N 01°07' E 103°44'4 7.4
2018-Apr-18 05:30N 01°04' E 103°41'4 8.1
2018-Apr-18 05:00N 01°04' E 103°37'4 8.4
2018-Apr-18 04:30N 01°06' E 103°33'5 8.4
2018-Apr-18 03:57N 01°08' E 103°29'4 8.9
2018-Apr-18 03:30N 01°10' E 103°26'5 9.5
2018-Apr-18 02:59N 01°13' E 103°22'6 9.4
2018-Apr-18 02:23N 01°17' E 103°18'  
Track history (hours):
 
Tides and Currents Weather Stations Pressure Air Temp Water Temp Dewpoint Dewpoint Depression Visibility Wind Speed Wind Dir Waves Ship Positions

New Mighty

Last reported at 2018-Apr-19 02:18 UTC. Time now 2018-Apr-22 10:54 UTC.
Position N 01°15' E 104°05'.

Length 292 m; draft 16.8 m.

Type: Cargo ship. MMSI: 354199000.

Date/timePositionNaut miles runAvg speedWind from/ knotsBaromVisibWave heightAir tempDewpointWater temp
2018-Apr-19 02:18N 01°15' E 104°05'3 9.7
2018-Apr-19 01:58N 01°15' E 104°02'4 8.9
2018-Apr-19 01:31N 01°14' E 103°58'2 4.4
2018-Apr-19 00:59N 01°16' E 103°56'0 0.1
2018-Apr-19 00:29N 01°16' E 103°56'0 0.0
2018-Apr-18 23:59N 01°16' E 103°56'0 0.1
2018-Apr-18 23:29N 01°16' E 103°57'0 0.0
2018-Apr-18 22:20N 01°16' E 103°57'0 0.0
2018-Apr-18 21:56N 01°16' E 103°57'0 0.0
2018-Apr-18 21:17N 01°16' E 103°57'0 0.0
2018-Apr-18 20:56N 01°16' E 103°57'0 0.0
2018-Apr-18 20:26N 01°16' E 103°57'0 0.0
2018-Apr-18 19:53N 01°16' E 103°57'0 0.0
2018-Apr-18 19:26N 01°16' E 103°57'0 0.1
2018-Apr-18 18:47N 01°16' E 103°57'0 0.5
2018-Apr-18 18:29N 01°16' E 103°56'0 0.4
2018-Apr-18 17:59N 01°16' E 103°56'0 0.2
2018-Apr-18 17:29N 01°16' E 103°56'0 0.0
2018-Apr-18 16:02N 01°16' E 103°56'0 0.0
2018-Apr-18 15:59N 01°16' E 103°56'0 0.0
2018-Apr-18 15:26N 01°16' E 103°56'0 0.0
2018-Apr-18 14:59N 01°16' E 103°56'0 0.0
2018-Apr-18 14:29N 01°16' E 103°56'0 0.0
2018-Apr-18 13:59N 01°16' E 103°56'0 0.0
2018-Apr-18 13:23N 01°16' E 103°56'0 0.0
2018-Apr-18 12:53N 01°16' E 103°56'0 0.0
2018-Apr-18 12:29N 01°16' E 103°56'0 0.0
2018-Apr-18 11:59N 01°16' E 103°56'0 0.0
2018-Apr-18 11:29N 01°16' E 103°56'0 0.1
2018-Apr-18 11:00N 01°16' E 103°56'0 0.1
2018-Apr-18 10:30N 01°16' E 103°56'0 0.0
2018-Apr-18 09:59N 01°16' E 103°56'0 0.2
2018-Apr-18 09:30N 01°16' E 103°56'0 0.2
2018-Apr-18 09:00N 01°16' E 103°56'1 2.1
2018-Apr-18 08:30N 01°15' E 103°57'1 2.5
2018-Apr-18 08:00N 01°14' E 103°57'3 6.3
2018-Apr-18 07:30N 01°13' E 103°54'4 7.9
2018-Apr-18 07:00N 01°11' E 103°50'3 6.2
2018-Apr-18 06:30N 01°10' E 103°47'4 8.8
2018-Apr-18 06:00N 01°07' E 103°44'4 7.4
2018-Apr-18 05:30N 01°04' E 103°41'4 8.1
2018-Apr-18 05:00N 01°04' E 103°37'4 8.4
2018-Apr-18 04:30N 01°06' E 103°33'5 8.4
2018-Apr-18 03:57N 01°08' E 103°29'4 8.9
2018-Apr-18 03:30N 01°10' E 103°26'5 9.5
2018-Apr-18 02:59N 01°13' E 103°22'6 9.4
2018-Apr-18 02:23N 01°17' E 103°18'  

Dump ship's entire track history